Data for 10/08/2006

Time Sea-Level Adjusted Pressure Absolute Pressure Temperature Relative Humidity Dew Point   
(mb) (inHg) (mb) (inHg) (C) (F) (%) (C) (F)
00:05 1025 30.27 855 25.25 4.9 40.8 86 2.8 37
00:10 1025 30.27 855 25.25 4.7 40.5 88 2.9 37.2
00:15 1025 30.27 855 25.25 4.6 40.4 88 2.8 37.1
00:20 1025 30.27 855 25.25 4.6 40.3 89 2.9 37.2
00:25 1025 30.27 854 25.22 4.7 40.4 88 2.9 37.2
00:30 1025 30.27 854 25.22 4.7 40.5 88 2.9 37.3
00:35 1025 30.27 854 25.22 4.7 40.4 89 2.9 37.3
00:40 1025 30.27 854 25.22 4.6 40.2 90 3 37.4
00:45 1025 30.27 854 25.22 4.4 39.9 90 2.9 37.3
00:50 1025 30.27 854 25.22 4.4 40 89 2.8 37.1
00:55 1025 30.27 854 25.22 4.5 40.1 88 2.8 37
01:00 1025 30.27 854 25.22 4.6 40.3 88 2.8 37
01:05 1025 30.27 854 25.22 4.7 40.4 88 2.8 37.1
01:10 1025 30.27 854 25.22 4.7 40.4 88 2.8 37
01:15 1025 30.27 854 25.22 4.5 40.2 88 2.7 36.8
01:20 1025 30.27 854 25.22 4.5 40.1 88 2.7 36.9
01:25 1025 30.27 854 25.22 4.5 40.1 89 2.8 37.1
01:30 1025 30.27 854 25.22 4.4 39.9 89 2.8 37
01:35 1025 30.27 854 25.22 4.4 40 88 2.7 36.8
01:40 1025 30.27 854 25.22 4.4 40 89 2.8 37
01:45 1025 30.27 854 25.22 4.6 40.4 88 2.8 37
01:50 1025 30.27 854 25.22 4.5 40.2 88 2.8 37
01:55 1025 30.27 854 25.22 4.3 39.8 88 2.5 36.5
02:00 1025 30.27 855 25.25 4.1 39.4 90 2.5 36.5
02:05 1025 30.27 855 25.25 4 39.2 88 2.2 36
02:10 1025 30.27 855 25.25 4 39.2 88 2.1 35.9
02:15 1025 30.27 855 25.25 4 39.2 85 1.8 35.2
02:20 1025 30.27 855 25.25 4 39.2 86 1.9 35.5
02:25 1026 30.3 855 25.25 4.2 39.5 86 2 35.6
02:30 1026 30.3 855 25.25 4.2 39.5 86 2 35.6
02:35 1026 30.3 855 25.25 4.1 39.4 86 2 35.6
02:40 1026 30.3 855 25.25 4.2 39.6 87 2.2 36
02:45 1026 30.3 855 25.25 4.2 39.6 88 2.3 36.2
02:50 1026 30.3 855 25.25 4.3 39.8 88 2.5 36.5
02:55 1026 30.3 855 25.25 4.4 39.8 88 2.5 36.5
03:00 1026 30.3 855 25.25 4.3 39.8 88 2.5 36.5
03:05 1026 30.3 855 25.25 4.3 39.7 88 2.4 36.4
03:10 1026 30.3 855 25.25 4.3 39.8 87 2.4 36.3
03:15 1026 30.3 855 25.25 4.4 39.9 88 2.5 36.5
03:20 1026 30.3 855 25.25 4.4 39.9 86 2.3 36.2
03:25 1026 30.3 855 25.25 4.3 39.8 87 2.4 36.4
03:30 1026 30.3 855 25.25 4.5 40 87 2.5 36.5
03:35 1026 30.3 855 25.25 4.4 40 87 2.4 36.3
03:40 1026 30.3 855 25.25 4.4 39.8 88 2.5 36.5
03:45 1026 30.3 855 25.25 4.2 39.6 87 2.3 36.2
03:50 1026 30.3 855 25.25 4.4 39.9 86 2.3 36.2
03:55 1026 30.3 855 25.25 4.5 40.1 86 2.4 36.3
04:00 1026 30.3 855 25.25 4.4 39.9 87 2.5 36.5
04:05 1026 30.3 855 25.25 4.5 40.2 87 2.5 36.5
04:10 1026 30.3 855 25.25 4.5 40 88 2.6 36.6
04:15 1026 30.3 855 25.25 4.4 39.9 87 2.4 36.4
04:20 1026 30.3 855 25.25 4.3 39.7 88 2.5 36.5
04:25 1026 30.3 855 25.25 4.2 39.5 89 2.5 36.5
04:30 1026 30.3 855 25.25 4 39.2 90 2.5 36.5
04:35 1026 30.3 855 25.25 3.8 38.9 91 2.5 36.5
04:40 1026 30.3 855 25.25 3.9 38.9 91 2.5 36.5
04:45 1026 30.3 855 25.25 3.9 39 91 2.6 36.7
04:50 1026 30.3 855 25.25 4 39.2 91 2.7 36.8
04:55 1026 30.3 855 25.25 4 39.2 91 2.6 36.7
05:00 1026 30.3 855 25.25 4.1 39.4 90 2.6 36.7
05:05 1026 30.3 855 25.25 4 39.3 90 2.6 36.6
05:10 1026 30.3 855 25.25 4 39.3 91 2.7 36.8
05:15 1026 30.3 855 25.25 4 39.2 91 2.6 36.8
05:20 1026 30.3 855 25.25 4 39.2 91 2.7 36.8
05:25 1026 30.3 855 25.25 4 39.2 91 2.7 36.8
05:30 1026 30.3 855 25.25 4.1 39.3 92 2.8 37.1
05:35 1026 30.3 855 25.25 4 39.2 92 2.8 37
05:40 1026 30.3 855 25.25 4 39.2 92 2.8 37.1
05:45 1026 30.3 855 25.25 4 39.1 92 2.7 36.9
05:50 1026 30.3 855 25.25 3.9 39.1 92 2.8 37
05:55 1026 30.3 855 25.25 4 39.2 92 2.8 37.1
06:00 1026 30.3 855 25.25 4 39.3 91 2.7 36.9
06:05 1026 30.3 855 25.25 4 39.2 91 2.6 36.6
06:10 1026 30.3 855 25.25 4.1 39.3 89 2.5 36.5
06:15 1026 30.3 855 25.25 4 39.3 90 2.5 36.5
06:20 1026 30.3 855 25.25 4 39.3 88 2.2 35.9
06:25 1026 30.3 855 25.25 3.9 39.1 87 2 35.6
06:30 1026 30.3 855 25.25 3.9 39 87 1.9 35.5
06:35 1026 30.3 855 25.25 3.8 38.9 88 2 35.5
06:40 1026 30.3 855 25.25 3.8 38.8 88 1.9 35.5
06:45 1026 30.3 855 25.25 3.7 38.6 88 1.8 35.2
06:50 1026 30.3 855 25.25 3.6 38.5 88 1.8 35.2
06:55 1026 30.3 855 25.25 3.6 38.5 88 1.8 35.2
07:00 1026 30.3 855 25.25 3.6 38.4 88 1.8 35.2
07:05 1026 30.3 855 25.25 3.5 38.4 88 1.8 35.2
07:10 1026 30.3 855 25.25 3.6 38.4 89 1.9 35.3
07:15 1026 30.3 855 25.25 3.5 38.3 90 2.1 35.8
07:20 1026 30.3 855 25.25 3.4 38.1 93 2.3 36.2
07:25 1026 30.3 855 25.25 3.3 37.9 93 2.3 36.1
07:30 1026 30.3 855 25.25 3.3 37.9 94 2.4 36.3
07:35 1026 30.3 856 25.28 3.3 38 94 2.4 36.3
07:40 1026 30.3 856 25.28 3.2 37.8 94 2.4 36.3
07:45 1026 30.3 856 25.28 3.2 37.8 94 2.3 36.2
07:50 1026 30.3 856 25.28 3.2 37.8 95 2.4 36.4
07:55 1026 30.3 856 25.28 3.2 37.7 95 2.5 36.4
08:00 1026 30.3 856 25.28 3.2 37.8 95 2.4 36.3
08:05 1026 30.3 856 25.28 3.3 37.9 93 2.2 36
08:10 1026 30.3 856 25.28 3.3 38 92 2.1 35.8
08:15 1026 30.3 856 25.28 3.3 38 92 2.1 35.8
08:20 1026 30.3 856 25.28 3.4 38.1 91 2.1 35.8
08:25 1026 30.3 856 25.28 3.4 38.1 92 2.2 35.9
08:30 1026 30.3 856 25.28 3.4 38.1 92 2.2 36
08:35 1026 30.3 856 25.28 3.5 38.3 91 2.2 36
08:40 1027 30.33 856 25.28 3.6 38.4 91 2.2 35.9
08:45 1026 30.3 856 25.28 3.6 38.4 91 2.2 35.9
08:50 1026 30.3 856 25.28 3.8 38.8 90 2.3 36.2
08:55 1027 30.33 856 25.28 3.8 38.8 89 2.2 35.9
09:00 1027 30.33 856 25.28 3.8 38.9 89 2.2 35.9
09:05 1027 30.33 856 25.28 3.8 38.9 89 2.3 36.1
09:10 1027 30.33 856 25.28 3.9 38.9 89 2.2 36
09:15 1027 30.33 856 25.28 3.8 38.9 89 2.2 36
09:20 1027 30.33 856 25.28 3.9 39 89 2.3 36.1
09:25 1027 30.33 856 25.28 3.9 39 89 2.2 36
09:30 1027 30.33 856 25.28 4.1 39.4 88 2.3 36.2
09:35 1026 30.3 856 25.28 4.1 39.5 87 2.1 35.8
09:40 1026 30.3 856 25.28 4.1 39.3 87 2.1 35.8
09:45 1026 30.3 856 25.28 4.2 39.5 86 2.1 35.7
09:50 1026 30.3 856 25.28 4.2 39.6 86 2 35.6
09:55 1026 30.3 856 25.28 4.3 39.8 86 2.2 35.9
10:00 1026 30.3 856 25.28 4.5 40.1 85 2.2 36
10:05 1026 30.3 856 25.28 4.5 40.1 84 2.1 35.7
10:10 1026 30.3 855 25.25 4.6 40.2 84 2 35.7
10:15 1026 30.3 855 25.25 4.8 40.7 83 2.1 35.9
10:20 1026 30.3 855 25.25 5.2 41.3 81 2.2 35.9
10:25 1026 30.3 855 25.25 5.1 41.2 82 2.2 36
10:30 1026 30.3 855 25.25 5.1 41.3 80 2 35.6
10:35 1026 30.3 855 25.25 5.4 41.7 80 2.1 35.8
10:40 1026 30.3 855 25.25 5.4 41.7 79 2.1 35.8
10:45 1026 30.3 855 25.25 5.6 42.1 77 2 35.5
10:50 1026 30.3 855 25.25 5.9 42.6 77 2.2 36
10:55 1026 30.3 855 25.25 5.8 42.4 78 2.3 36.2
11:00 1026 30.3 855 25.25 5.6 42.1 79 2.2 35.9
11:05 1026 30.3 855 25.25 6 42.8 77 2.2 36
11:10 1026 30.3 855 25.25 6 42.8 76 2 35.7
11:15 1026 30.3 855 25.25 6.1 42.9 75 1.9 35.5
11:20 1026 30.3 855 25.25 6.4 43.6 74 2.1 35.7
11:25 1025 30.27 855 25.25 6.3 43.3 74 2.1 35.7
11:30 1026 30.3 855 25.25 6.5 43.7 74 2.1 35.9
11:35 1026 30.3 855 25.25 6.9 44.4 71 2.1 35.7
11:40 1026 30.3 855 25.25 7.3 45.2 71 2.4 36.3
11:45 1026 30.3 855 25.25 7.2 45 71 2.4 36.2
11:50 1026 30.3 855 25.25 7.2 44.9 71 2.3 36.1
11:55 1026 30.3 855 25.25 7.3 45.2 71 2.4 36.3
12:00 1026 30.3 855 25.25 7.4 45.2 72 2.6 36.6
12:05 1025 30.27 855 25.25 7.5 45.6 68 2.1 35.8
12:10 1025 30.27 855 25.25 7.5 45.4 71 2.5 36.5
12:15 1026 30.3 855 25.25 7.4 45.4 71 2.5 36.5
12:20 1026 30.3 855 25.25 7.7 45.9 68 2.2 35.9
12:25 1026 30.3 855 25.25 7.9 46.2 67 2.1 35.8
12:30 1026 30.3 855 25.25 7.9 46.2 70 2.7 36.9
12:35 1026 30.3 855 25.25 8.3 46.9 69 2.9 37.2
12:40 1026 30.3 855 25.25 8.4 47.1 66 2.5 36.5
12:45 1025 30.27 855 25.25 8.1 46.6 68 2.7 36.8
12:50 1025 30.27 855 25.25 7.9 46.2 68 2.4 36.3
12:55 1025 30.27 854 25.22 8.7 47.6 64 2.3 36.2
13:00 1025 30.27 854 25.22 8.6 47.4 66 2.7 36.8
13:05 1025 30.27 854 25.22 8.3 46.9 67 2.6 36.7
13:10 1025 30.27 854 25.22 9 48.2 65 2.7 36.9
13:15 1025 30.27 854 25.22 8.8 47.8 65 2.5 36.6
13:20 1025 30.27 854 25.22 8.4 47.1 68 2.9 37.2
13:25 1025 30.27 854 25.22 8.5 47.3 68 2.9 37.2
13:30 1025 30.27 854 25.22 8.6 47.4 67 2.9 37.1
13:35 1025 30.27 854 25.22 8.4 47 69 2.9 37.3
13:40 1025 30.27 854 25.22 8.5 47.3 68 3 37.4
13:45 1025 30.27 854 25.22 8.8 47.8 67 3 37.4
13:50 1025 30.27 854 25.22 8.4 47.1 67 2.7 36.9
13:55 1025 30.27 854 25.22 8.4 47.1 68 2.8 37.1
14:00 1025 30.27 854 25.22 8.3 46.9 67 2.6 36.7
14:05 1025 30.27 854 25.22 8.2 46.8 69 2.9 37.2
14:10 1025 30.27 854 25.22 8.3 46.9 68 2.7 36.9
14:15 1025 30.27 854 25.22 9.2 48.6 66 3.1 37.7
14:20 1025 30.27 854 25.22 9.3 48.8 64 2.8 37
14:25 1025 30.27 854 25.22 8.9 47.9 67 3 37.5
14:30 1025 30.27 854 25.22 8.9 48 66 2.9 37.3
14:35 1025 30.27 854 25.22 9.2 48.6 65 3 37.3
14:40 1025 30.27 854 25.22 9.2 48.5 65 3.1 37.5
14:45 1025 30.27 854 25.22 9.3 48.7 65 3.2 37.7
14:50 1024 30.24 854 25.22 8.9 48 67 3.1 37.6
14:55 1024 30.24 854 25.22 9.4 48.9 65 3.1 37.5
15:00 1024 30.24 854 25.22 9.1 48.3 66 3.1 37.6
15:05 1024 30.24 854 25.22 8.9 48 67 3.1 37.5
15:10 1024 30.24 854 25.22 8.4 47.1 69 3 37.5
15:15 1024 30.24 853 25.19 8.7 47.6 67 2.9 37.2
15:20 1024 30.24 853 25.19 8.5 47.2 67 2.7 36.9
15:25 1024 30.24 853 25.19 8.4 47 67 2.7 36.9
15:30 1024 30.24 853 25.19 8.4 47.2 67 2.6 36.7
15:35 1024 30.24 853 25.19 8.5 47.2 68 2.9 37.2
15:40 1024 30.24 853 25.19 9 48.2 66 3 37.5
15:45 1024 30.24 853 25.19 8.6 47.4 67 2.8 37.1
15:50 1024 30.24 853 25.19 8.4 47.1 69 3.1 37.6
15:55 1024 30.24 853 25.19 8.7 47.6 67 2.9 37.2
16:00 1024 30.24 853 25.19 8.8 47.9 66 2.8 37.1
16:05 1024 30.24 853 25.19 8.5 47.3 68 2.9 37.2
16:10 1024 30.24 853 25.19 8.6 47.5 67 2.9 37.2
16:15 1024 30.24 853 25.19 8.2 46.8 69 2.9 37.2
16:20 1024 30.24 853 25.19 8 46.3 68 2.5 36.5
16:25 1024 30.24 853 25.19 7.6 45.6 70 2.5 36.5
16:30 1024 30.24 853 25.19 7.5 45.4 72 2.7 36.8
16:35 1024 30.24 853 25.19 7.6 45.7 71 2.6 36.7
16:40 1024 30.24 853 25.19 7.6 45.8 70 2.5 36.6
16:45 1024 30.24 853 25.19 7.4 45.3 71 2.5 36.4
16:50 1024 30.24 853 25.19 7.1 44.8 73 2.6 36.6
16:55 1024 30.24 853 25.19 6.9 44.5 73 2.5 36.4
17:00 1024 30.24 853 25.19 6.8 44.3 74 2.4 36.4
17:05 1024 30.24 853 25.19 6.6 43.9 75 2.5 36.4
17:10 1024 30.24 853 25.19 6.5 43.7 74 2.2 36
17:15 1024 30.24 853 25.19 6.4 43.4 74 2.1 35.8
17:20 1024 30.24 853 25.19 6.3 43.4 74 2.1 35.9
17:25 1024 30.24 853 25.19 6.3 43.3 74 2.1 35.7
17:30 1024 30.24 853 25.19 6.2 43.1 74 1.9 35.4
17:35 1024 30.24 853 25.19 6 42.8 74 1.8 35.2
17:40 1023 30.21 853 25.19 5.9 42.6 75 1.8 35.2
17:45 1024 30.24 853 25.19 5.8 42.4 75 1.7 35
17:50 1024 30.24 853 25.19 5.8 42.4 76 1.8 35.2
17:55 1024 30.24 853 25.19 5.7 42.3 76 1.8 35.2
18:00 1024 30.24 853 25.19 5.7 42.2 76 1.8 35.3
18:05 1024 30.24 853 25.19 5.6 42.1 76 1.8 35.3
18:10 1024 30.24 853 25.19 5.5 41.9 77 1.8 35.3
18:15 1024 30.24 853 25.19 5.4 41.8 78 1.8 35.3
18:20 1024 30.24 853 25.19 5.4 41.8 78 1.8 35.3
18:25 1024 30.24 853 25.19 5.4 41.7 78 1.9 35.3
18:30 1024 30.24 853 25.19 5.3 41.5 78 1.7 35
18:35 1024 30.24 853 25.19 5.2 41.4 78 1.7 35.1
18:40 1024 30.24 853 25.19 5.2 41.4 78 1.7 35
18:45 1024 30.24 853 25.19 5.2 41.3 78 1.7 35
18:50 1024 30.24 853 25.19 5.2 41.3 79 1.7 35.1
18:55 1024 30.24 853 25.19 5 41.1 80 1.8 35.3
19:00 1024 30.24 853 25.19 4.9 40.9 80 1.9 35.3
19:05 1024 30.24 853 25.19 4.9 40.8 81 1.8 35.3
19:10 1024 30.24 853 25.19 4.8 40.7 81 1.8 35.3
19:15 1024 30.24 853 25.19 4.8 40.6 81 1.7 35.1
19:20 1024 30.24 853 25.19 4.8 40.7 81 1.8 35.2
19:25 1024 30.24 853 25.19 4.7 40.5 81 1.8 35.2
19:30 1024 30.24 854 25.22 4.7 40.4 81 1.7 35.1
19:35 1024 30.24 854 25.22 4.6 40.3 81 1.7 35.1
19:40 1024 30.24 854 25.22 4.6 40.4 81 1.6 34.9
19:45 1025 30.27 854 25.22 4.7 40.4 80 1.6 34.9
19:50 1025 30.27 854 25.22 4.7 40.4 81 1.6 34.9
19:55 1025 30.27 854 25.22 4.6 40.3 81 1.7 35
20:00 1025 30.27 854 25.22 4.6 40.2 80 1.4 34.5
20:05 1025 30.27 854 25.22 4.5 40.2 81 1.6 34.9
20:10 1025 30.27 854 25.22 4.5 40.1 82 1.8 35.2
20:15 1025 30.27 854 25.22 4.4 39.9 84 1.9 35.4
20:20 1025 30.27 854 25.22 4.2 39.6 85 1.9 35.5
20:25 1025 30.27 854 25.22 4.1 39.4 86 2 35.6
20:30 1025 30.27 854 25.22 4 39.3 84 1.6 34.8
20:35 1025 30.27 854 25.22 4.1 39.3 84 1.6 34.9
20:40 1025 30.27 854 25.22 4 39.3 84 1.6 34.8
20:45 1025 30.27 854 25.22 4 39.1 85 1.6 34.9
20:50 1025 30.27 854 25.22 4 39.2 83 1.4 34.5
20:55 1025 30.27 854 25.22 4 39.1 83 1.3 34.4
21:00 1025 30.27 854 25.22 4 39.2 82 1.2 34.1
21:05 1025 30.27 854 25.22 4 39.1 81 1 33.8
21:10 1025 30.27 854 25.22 3.9 39.1 81 0.9 33.7
21:15 1025 30.27 854 25.22 3.9 39.1 81 0.9 33.7
21:20 1025 30.27 854 25.22 4 39.1 81 1.1 33.9
21:25 1025 30.27 854 25.22 3.9 39.1 81 1 33.8
21:30 1025 30.27 854 25.22 3.8 38.9 81 0.9 33.7
21:35 1025 30.27 854 25.22 3.8 38.9 81 0.9 33.7
21:40 1025 30.27 854 25.22 3.8 38.9 81 0.9 33.6
21:45 1025 30.27 854 25.22 3.8 38.9 82 1 33.8
21:50 1025 30.27 854 25.22 3.8 38.9 82 1 33.9
21:55 1025 30.27 854 25.22 3.8 38.9 82 1 33.7
22:00 1025 30.27 854 25.22 3.8 38.9 81 0.9 33.6
22:05 1025 30.27 854 25.22 3.9 38.9 81 0.9 33.6
22:10 1025 30.27 854 25.22 3.8 38.9 81 0.9 33.6
22:15 1025 30.27 854 25.22 3.8 38.9 81 0.9 33.6
22:20 1025 30.27 854 25.22 3.8 38.8 82 1 33.8
22:25 1025 30.27 854 25.22 3.7 38.7 82 1 33.8
22:30 1025 30.27 854 25.22 3.7 38.6 82 1 33.8
22:35 1025 30.27 854 25.22 3.6 38.5 83 1 33.8
22:40 1025 30.27 854 25.22 3.5 38.4 83 1 33.8
22:45 1025 30.27 854 25.22 3.5 38.3 83 0.9 33.7
22:50 1025 30.27 854 25.22 3.4 38.1 83 0.8 33.5
22:55 1025 30.27 854 25.22 3.3 37.9 84 0.8 33.5
23:00 1025 30.27 854 25.22 3.1 37.6 84 0.7 33.3
23:05 1025 30.27 854 25.22 3 37.5 84 0.6 33.1
23:10 1025 30.27 854 25.22 3 37.3 85 0.7 33.3
23:15 1025 30.27 854 25.22 2.9 37.2 85 0.6 33.1
23:20 1025 30.27 854 25.22 2.9 37.2 85 0.6 33.1
23:25 1025 30.27 854 25.22 2.9 37.2 85 0.6 33.1
23:30 1025 30.27 854 25.22 2.8 37.1 85 0.5 32.9
23:35 1025 30.27 854 25.22 2.8 37 84 0.4 32.7
23:40 1025 30.27 854 25.22 2.7 36.8 84 0.3 32.5
23:45 1025 30.27 854 25.22 2.6 36.7 84 0.2 32.4
23:50 1025 30.27 854 25.22 2.5 36.5 85 0.2 32.4
23:55 1025 30.27 854 25.22 2.4 36.2 86 0.2 32.4
24:00 1025 30.27 854 25.22 2.2 36 86 0.1 32.2